ePrivacy and GPDR Cookie Consent by Cookie Consent
EmailTwitter


Surface observations / Europe / LIRF (16242)

Regions: Quebec | Canada | USA | Europe | France | UK | Elsewhere
Station
Display
Info & Location for LIRF (16242) | Help decoding METAR

Weather Conditions observed on 2024/05/26 at 20:20 UTC (LIRF)

Temperature: 20.0 Celsius.

Dewpoint: 15.0 Celsius.

Relative Humidity: 73%

Humidex 24.

Winds: Northwest at 19 km/h or 10 knots.

Mean Sea level Pressure: 101.80 kilopascals.

Horizontal visibility: 6.21 statute miles or 9.94 kilometers.

Coded METAR:

LIRF 262020Z AUTO 30010KT 9999 NCD 20/15 Q1018=